Time;durP1;ratioP1;P1;durP2;ratioP2;P2;SDS_P1;SDS_P2;PMS_P1;PMS_P2;Temp;Humidity;BMP_temperature;BMP_pressure;BME280_temperature;BME280_humidity;BME280_pressure;Samples;Min_cycle;Max_cycle;Signal;HPM_P1;HPM_P2
2022/04/21 00:00:31;;;;;;;4.82;4.43;;;5.60;93.50;;;;;;5031598;28;20206;-70
2022/04/21 00:02:58;;;;;;;5.30;4.20;;;5.50;93.70;;;;;;5031488;28;20201;-70
2022/04/21 00:05:25;;;;;;;7.38;4.72;;;5.60;93.80;;;;;;5031655;28;20214;-70
2022/04/21 00:07:53;;;;;;;4.40;4.00;;;5.50;93.80;;;;;;5031475;28;20226;-70
2022/04/21 00:10:20;;;;;;;4.53;4.07;;;5.50;93.90;;;;;;5030708;28;20213;-69
2022/04/21 00:12:47;;;;;;;4.90;4.18;;;5.40;93.80;;;;;;5030839;28;20252;-70
2022/04/21 00:15:15;;;;;;;5.10;4.60;;;5.40;94.20;;;;;;5030736;28;20310;-70
2022/04/21 00:17:42;;;;;;;5.38;4.15;;;5.30;94.30;;;;;;5030650;28;20226;-70
2022/04/21 00:20:10;;;;;;;7.50;5.80;;;5.30;94.20;;;;;;5030265;28;20205;-70
2022/04/21 00:25:22;;;;;;;5.28;4.45;;;5.20;94.50;;;;;;5030978;28;20323;-70
2022/04/21 00:27:50;;;;;;;6.07;4.72;;;5.20;94.60;;;;;;5030762;28;20247;-70
2022/04/21 00:30:17;;;;;;;4.90;4.40;;;5.10;94.90;;;;;;5030093;28;20209;-70
2022/04/21 00:32:45;;;;;;;5.68;4.55;;;5.10;95.10;;;;;;5030696;28;20240;-70
2022/04/21 00:35:13;;;;;;;4.75;4.30;;;5.00;95.10;;;;;;5030350;28;20709;-70
2022/04/21 00:37:48;;;;;;;4.78;4.25;;;5.00;95.10;;;;;;5030674;28;20240;-70
2022/04/21 00:40:17;;;;;;;5.00;4.25;;;5.00;95.40;;;;;;5029922;28;20201;-70
2022/04/21 00:42:45;;;;;;;5.00;4.57;;;4.90;95.60;;;;;;5030709;28;20778;-70
2022/04/21 00:45:12;;;;;;;5.97;4.88;;;4.90;95.40;;;;;;5030442;28;20201;-70
2022/04/21 00:47:43;;;;;;;5.15;4.38;;;4.90;95.60;;;;;;5057033;22;20248;-89
2022/04/21 00:50:12;;;;;;;5.10;4.53;;;4.90;96.00;;;;;;5063810;28;20199;-90
2022/04/21 00:52:40;;;;;;;5.55;5.03;;;4.90;96.00;;;;;;5058528;28;20208;-92
2022/04/21 00:55:08;;;;;;;8.55;5.10;;;4.80;96.20;;;;;;5056005;28;20225;-90
2022/04/21 00:57:35;;;;;;;5.72;4.40;;;4.80;96.50;;;;;;5065297;22;20221;-67
2022/04/21 01:00:05;;;;;;;6.15;4.65;;;4.80;96.70;;;;;;5068344;28;20664;-67
2022/04/21 01:02:49;;;;;;;5.43;4.40;;;4.80;96.80;;;;;;5053839;28;20255;-67
2022/04/21 01:05:17;;;;;;;7.30;5.63;;;4.70;96.80;;;;;;5053979;28;20204;-67
2022/04/21 01:07:44;;;;;;;5.75;4.82;;;4.70;97.10;;;;;;5053746;28;20597;-70
2022/04/21 01:10:11;;;;;;;7.43;5.20;;;4.70;97.30;;;;;;5052353;28;20197;-66
2022/04/21 01:12:39;;;;;;;5.57;4.53;;;4.70;97.20;;;;;;5052904;28;20201;-67
2022/04/21 01:15:08;;;;;;;5.93;4.72;;;4.70;97.20;;;;;;5052649;28;20665;-68
2022/04/21 01:17:37;;;;;;;5.80;4.90;;;4.60;97.50;;;;;;5052805;28;20225;-67
2022/04/21 01:20:05;;;;;;;5.75;5.30;;;4.60;97.50;;;;;;5052344;28;20333;-67
2022/04/21 01:22:33;;;;;;;6.75;5.20;;;4.50;97.80;;;;;;5052450;28;20201;-67
2022/04/21 01:25:00;;;;;;;6.32;5.63;;;4.50;97.90;;;;;;5052727;28;20212;-67
2022/04/21 01:27:30;;;;;;;7.53;5.95;;;4.50;98.10;;;;;;5052310;28;20271;-68
2022/04/21 01:29:56;;;;;;;6.65;5.22;;;4.50;98.40;;;;;;5052141;28;20639;-67
2022/04/21 01:32:23;;;;;;;6.03;5.40;;;4.40;98.40;;;;;;5052472;28;20205;-67
2022/04/21 01:34:50;;;;;;;5.82;5.35;;;4.40;98.80;;;;;;5052258;28;20209;-67
2022/04/21 01:42:47;;;;;;;5.43;4.90;;;4.30;99.50;;;;;;5052506;28;20215;-67
2022/04/21 01:45:14;;;;;;;7.88;6.13;;;4.40;99.60;;;;;;5052057;28;20247;-67
2022/04/21 01:47:40;;;;;;;6.15;5.47;;;4.40;99.80;;;;;;5052092;28;20802;-67
2022/04/21 01:50:08;;;;;;;5.60;5.10;;;4.40;99.90;;;;;;5051693;28;20208;-67
2022/04/21 01:52:36;;;;;;;6.47;5.53;;;4.40;99.60;;;;;;5051896;28;20201;-67
2022/04/21 01:55:06;;;;;;;6.30;5.70;;;4.40;99.90;;;;;;5052077;28;20217;-68
2022/04/21 01:57:33;;;;;;;7.30;5.70;;;4.40;99.90;;;;;;5051575;28;20221;-67
2022/04/21 02:00:00;;;;;;;6.10;5.30;;;4.40;99.90;;;;;;5051477;28;20233;-67
2022/04/21 02:02:26;;;;;;;6.75;6.10;;;4.30;99.90;;;;;;5051751;28;20232;-67
2022/04/21 02:04:53;;;;;;;7.32;5.90;;;4.30;99.90;;;;;;5051779;28;20660;-67
2022/04/21 02:07:20;;;;;;;6.10;5.50;;;4.30;99.90;;;;;;5051881;28;20225;-67
2022/04/21 02:09:46;;;;;;;7.35;5.72;;;4.30;99.90;;;;;;5050824;28;20205;-67
2022/04/21 02:12:14;;;;;;;6.30;5.70;;;4.20;99.90;;;;;;5051611;28;20209;-67
2022/04/21 02:14:41;;;;;;;9.23;5.88;;;4.20;99.90;;;;;;5051709;28;20201;-67
2022/04/21 02:17:08;;;;;;;7.00;5.85;;;4.20;99.90;;;;;;5051398;28;20225;-67
2022/04/21 02:19:36;;;;;;;8.68;6.40;;;4.20;99.90;;;;;;5051367;28;20592;-68
2022/04/21 02:22:03;;;;;;;7.57;6.60;;;4.20;99.90;;;;;;5051455;28;20243;-67
2022/04/21 02:24:29;;;;;;;7.28;6.32;;;4.20;99.90;;;;;;5051703;28;20216;-67
2022/04/21 02:26:56;;;;;;;7.15;6.45;;;4.20;99.90;;;;;;5051213;28;20645;-68
2022/04/21 02:29:24;;;;;;;7.32;6.53;;;4.20;99.90;;;;;;5050773;28;20197;-68
2022/04/21 02:31:51;;;;;;;6.70;6.10;;;4.20;99.90;;;;;;5051433;28;20204;-67
2022/04/21 02:34:17;;;;;;;7.20;6.60;;;4.10;99.90;;;;;;5051253;28;20664;-68
2022/04/21 02:36:44;;;;;;;7.50;6.68;;;4.10;99.90;;;;;;5051279;28;20604;-67
2022/04/21 02:39:11;;;;;;;7.57;6.88;;;4.10;99.90;;;;;;5050652;28;20227;-67
2022/04/21 02:41:37;;;;;;;8.02;5.85;;;4.10;99.90;;;;;;5051440;28;20553;-68
2022/04/21 02:44:05;;;;;;;8.15;6.57;;;4.00;99.90;;;;;;5050909;28;20205;-67
2022/04/21 02:46:35;;;;;;;7.82;7.07;;;4.00;99.90;;;;;;5050884;28;20248;-67
2022/04/21 02:49:02;;;;;;;8.13;7.35;;;4.00;99.90;;;;;;5050677;28;20681;-67
2022/04/21 02:51:29;;;;;;;8.35;6.75;;;4.00;99.90;;;;;;5050800;28;20296;-68
2022/04/21 02:59:25;;;;;;;9.75;7.68;;;3.90;99.90;;;;;;5050228;28;20212;-68
2022/04/21 03:01:53;;;;;;;10.75;7.50;;;3.90;99.90;;;;;;5051014;28;20201;-66
2022/04/21 03:04:20;;;;;;;7.45;6.72;;;4.00;99.90;;;;;;5050538;28;20205;-67
2022/04/21 03:06:46;;;;;;;10.10;7.18;;;4.00;99.90;;;;;;5050797;28;20595;-67
2022/04/21 03:09:13;;;;;;;7.60;6.90;;;3.90;99.90;;;;;;5049929;28;20200;-68
2022/04/21 03:11:40;;;;;;;10.10;7.30;;;3.90;99.90;;;;;;5050897;28;20201;-67
2022/04/21 03:14:07;;;;;;;7.38;6.68;;;3.90;99.90;;;;;;5050574;28;20205;-66
2022/04/21 03:16:33;;;;;;;13.00;6.85;;;3.90;99.90;;;;;;5050312;28;20229;-68
2022/04/21 03:19:01;;;;;;;8.85;8.00;;;3.90;99.90;;;;;;5050193;28;20263;-68
2022/04/21 03:24:21;;;;;;;10.20;7.93;;;3.90;99.90;;;;;;5050055;28;20246;-67
2022/04/21 03:26:49;;;;;;;9.10;7.70;;;3.80;99.90;;;;;;5050532;28;20249;-68
2022/04/21 03:29:15;;;;;;;7.68;6.88;;;3.80;99.90;;;;;;5050247;28;20308;-68
2022/04/21 03:31:43;;;;;;;7.88;7.18;;;3.80;99.90;;;;;;5052389;28;20208;-68
2022/04/21 03:34:13;;;;;;;8.40;7.47;;;3.70;99.90;;;;;;5050605;28;20201;-68
2022/04/21 03:36:43;;;;;;;8.90;8.02;;;3.70;99.90;;;;;;5050329;28;20267;-67
2022/04/21 03:39:10;;;;;;;9.68;8.02;;;3.70;99.90;;;;;;5050012;28;20232;-67
2022/04/21 03:41:37;;;;;;;8.13;7.25;;;3.70;99.90;;;;;;5050227;28;20628;-68
2022/04/21 03:44:04;;;;;;;9.52;7.78;;;3.60;99.90;;;;;;5050391;28;20572;-67
2022/04/21 03:46:32;;;;;;;8.48;7.68;;;3.60;99.90;;;;;;5049704;28;20312;-68
2022/04/21 03:48:59;;;;;;;9.00;8.10;;;3.60;99.90;;;;;;5049885;28;20196;-67
2022/04/21 03:51:27;;;;;;;9.77;8.88;;;3.60;99.90;;;;;;5049796;28;20292;-67
2022/04/21 03:53:54;;;;;;;9.43;8.50;;;3.50;99.90;;;;;;5050249;28;20258;-67
2022/04/21 03:56:21;;;;;;;9.73;8.82;;;3.50;99.90;;;;;;5049578;28;20320;-68
2022/04/21 03:58:48;;;;;;;11.52;9.02;;;3.50;99.90;;;;;;5049528;28;20249;-67
2022/04/21 04:01:15;;;;;;;10.15;9.10;;;3.40;99.90;;;;;;5049907;28;20207;-67
2022/04/21 04:03:42;;;;;;;9.70;8.82;;;3.40;99.90;;;;;;5050045;28;20239;-67
2022/04/21 04:10:51;;;;;;;10.02;9.02;;;3.40;99.90;;;;;;5050228;28;20193;-68
2022/04/21 04:11:42;;;;;;;12.35;10.05;;;3.30;99.90;;;;;;5050679;28;20216;-67
2022/04/21 04:14:08;;;;;;;10.90;9.80;;;3.30;99.90;;;;;;5049843;28;20197;-67
2022/04/21 04:16:37;;;;;;;11.48;9.15;;;3.30;99.90;;;;;;5049576;28;20229;-68
2022/04/21 04:19:07;;;;;;;11.10;9.50;;;3.30;99.90;;;;;;5049447;28;20583;-67
2022/04/21 04:21:34;;;;;;;10.13;9.15;;;3.30;99.90;;;;;;5049911;28;20205;-67
2022/04/21 04:24:03;;;;;;;11.65;9.68;;;3.30;99.90;;;;;;5049868;28;20202;-67
2022/04/21 04:26:30;;;;;;;11.25;10.15;;;3.30;99.90;;;;;;5049284;28;20228;-67
2022/04/21 04:28:57;;;;;;;10.68;9.57;;;3.30;99.90;;;;;;5049149;28;20202;-68
2022/04/21 04:31:24;;;;;;;11.23;10.13;;;3.30;99.90;;;;;;5049527;28;20208;-67
2022/04/21 04:33:51;;;;;;;12.02;10.43;;;3.20;99.90;;;;;;5050005;28;20217;-67
2022/04/21 04:36:17;;;;;;;12.10;10.43;;;3.30;99.90;;;;;;5052857;28;20221;-67
2022/04/21 04:38:45;;;;;;;12.25;11.02;;;3.30;99.90;;;;;;5052667;28;20209;-68
2022/04/21 04:43:58;;;;;;;12.30;11.07;;;3.20;99.90;;;;;;5053601;28;20204;-67
2022/04/21 04:46:35;;;;;;;11.18;10.07;;;3.30;99.90;;;;;;5052520;28;20221;-68
2022/04/21 04:49:04;;;;;;;11.18;10.02;;;3.30;99.90;;;;;;5052897;28;20205;-68
2022/04/21 04:51:31;;;;;;;12.05;10.75;;;3.30;99.90;;;;;;5053053;28;20275;-67
2022/04/21 04:53:57;;;;;;;13.13;10.95;;;3.20;99.90;;;;;;5053308;28;20205;-67
2022/04/21 04:56:27;;;;;;;10.63;9.63;;;3.30;99.90;;;;;;5052563;28;20236;-68
2022/04/21 04:58:54;;;;;;;15.43;11.38;;;3.30;99.90;;;;;;5052444;28;20213;-67
2022/04/21 05:01:27;;;;;;;13.40;10.73;;;3.30;99.90;;;;;;5052747;28;20590;-67
2022/04/21 05:04:01;;;;;;;11.65;10.55;;;3.40;99.90;;;;;;5053192;28;20263;-67
2022/04/21 05:06:28;;;;;;;12.98;11.77;;;3.40;99.90;;;;;;5052674;28;20251;-67
2022/04/21 05:08:56;;;;;;;12.05;10.85;;;3.50;99.90;;;;;;5052055;28;20209;-67
2022/04/21 05:11:22;;;;;;;12.85;11.55;;;3.50;99.90;;;;;;5052599;28;20203;-67
2022/04/21 05:13:50;;;;;;;12.05;10.95;;;3.50;99.90;;;;;;5052786;28;20201;-68
2022/04/21 05:16:17;;;;;;;12.15;10.95;;;3.50;99.90;;;;;;5052397;28;20224;-67
2022/04/21 05:18:44;;;;;;;11.18;10.18;;;3.60;99.90;;;;;;5052013;28;20205;-67
2022/04/21 05:21:11;;;;;;;11.95;10.82;;;3.70;99.90;;;;;;5052695;28;20204;-67
2022/04/21 05:23:40;;;;;;;12.48;10.57;;;3.80;99.90;;;;;;5052444;28;20205;-68
2022/04/21 05:26:07;;;;;;;12.85;10.77;;;3.90;99.90;;;;;;5053154;28;20204;-68
2022/04/21 05:28:35;;;;;;;12.13;10.60;;;3.90;99.90;;;;;;5053939;28;20239;-69
2022/04/21 05:31:02;;;;;;;13.02;11.73;;;4.10;99.90;;;;;;5052629;28;20197;-69
2022/04/21 05:33:31;;;;;;;12.30;11.07;;;4.10;99.90;;;;;;5052154;28;20205;-69
2022/04/21 05:36:00;;;;;;;11.40;10.35;;;4.20;99.90;;;;;;5052759;28;20296;-69
2022/04/21 05:38:28;;;;;;;10.95;9.95;;;4.30;99.90;;;;;;5051654;28;20267;-69
2022/04/21 05:40:55;;;;;;;15.27;10.45;;;4.30;99.90;;;;;;5052549;28;20225;-69
2022/04/21 05:43:28;;;;;;;14.10;10.52;;;4.40;99.90;;;;;;5052216;28;20204;-69
2022/04/21 05:45:55;;;;;;;11.95;10.75;;;4.50;99.90;;;;;;5052094;28;20205;-69
2022/04/21 05:48:23;;;;;;;12.90;11.25;;;4.70;99.90;;;;;;5051142;28;20711;-69
2022/04/21 05:50:53;;;;;;;10.75;9.75;;;4.80;99.90;;;;;;5052210;28;20208;-69
2022/04/21 05:53:22;;;;;;;12.30;11.15;;;4.90;99.90;;;;;;5052135;28;20209;-69
2022/04/21 05:55:50;;;;;;;12.90;11.48;;;5.10;99.90;;;;;;5052107;28;20205;-69
2022/04/21 05:58:16;;;;;;;13.13;11.82;;;5.20;99.90;;;;;;5051191;28;20633;-69
2022/04/21 06:00:43;;;;;;;13.60;12.20;;;5.40;99.90;;;;;;5052212;28;20197;-69
2022/04/21 06:03:11;;;;;;;13.70;12.10;;;5.50;99.90;;;;;;5051954;28;20209;-69
2022/04/21 06:05:40;;;;;;;14.05;12.75;;;5.70;99.90;;;;;;5051822;28;20235;-69
2022/04/21 06:08:07;;;;;;;13.95;12.55;;;5.80;99.90;;;;;;5051143;28;20249;-69
2022/04/21 06:10:34;;;;;;;15.75;12.63;;;6.00;99.90;;;;;;5051649;28;20232;-69
2022/04/21 06:13:02;;;;;;;13.10;11.80;;;6.10;99.90;;;;;;5051721;28;20240;-69
2022/04/21 06:15:31;;;;;;;12.80;11.60;;;6.30;99.90;;;;;;5051429;28;20212;-69
2022/04/21 06:17:58;;;;;;;14.90;11.50;;;6.40;99.90;;;;;;5051443;28;20312;-69
2022/04/21 06:20:25;;;;;;;13.48;12.07;;;6.50;99.90;;;;;;5051435;28;20228;-69
2022/04/21 06:22:55;;;;;;;13.77;12.40;;;6.70;99.90;;;;;;5051564;28;20197;-69
2022/04/21 06:25:22;;;;;;;14.88;13.32;;;6.80;99.90;;;;;;5051378;28;20212;-69
2022/04/21 06:27:49;;;;;;;11.82;10.73;;;6.90;99.90;;;;;;5051362;28;20565;-69
2022/04/21 06:30:16;;;;;;;11.70;10.55;;;7.10;99.90;;;;;;5050800;28;20201;-69
2022/04/21 06:32:43;;;;;;;13.77;12.48;;;7.20;99.90;;;;;;5051287;28;20672;-69
2022/04/21 06:35:10;;;;;;;11.95;10.88;;;7.30;99.90;;;;;;5051401;28;20634;-69
2022/04/21 06:37:37;;;;;;;13.40;11.77;;;7.40;99.90;;;;;;5050964;28;20225;-69
2022/04/21 06:40:06;;;;;;;15.07;11.48;;;7.60;99.90;;;;;;5050775;28;20229;-69
2022/04/21 06:42:33;;;;;;;13.07;11.77;;;7.80;99.90;;;;;;5051091;28;20292;-69
2022/04/21 06:50:28;;;;;;;13.13;11.75;;;8.20;99.90;;;;;;5050773;28;20207;-69
2022/04/21 06:52:55;;;;;;;11.98;10.88;;;8.30;98.90;;;;;;5051067;28;20208;-69
2022/04/21 06:55:23;;;;;;;13.05;10.20;;;8.30;99.10;;;;;;5049254;28;20201;-70
2022/04/21 06:57:50;;;;;;;12.63;11.32;;;8.30;98.40;;;;;;5048562;28;20236;-69
2022/04/21 07:00:17;;;;;;;12.50;11.20;;;8.40;98.10;;;;;;5050207;28;20239;-69
2022/04/21 07:02:44;;;;;;;13.05;11.60;;;8.40;97.70;;;;;;5082667;22;20236;-92
2022/04/21 07:05:12;;;;;;;12.13;10.90;;;8.40;97.50;;;;;;5098869;22;20228;-67
2022/04/21 07:07:40;;;;;;;13.48;10.95;;;8.50;97.30;;;;;;5077413;28;20558;-68
2022/04/21 07:10:08;;;;;;;12.52;11.18;;;8.50;97.50;;;;;;5090060;28;20208;-68
2022/04/21 07:12:36;;;;;;;13.35;11.90;;;8.60;97.50;;;;;;5090953;28;20211;-67
2022/04/21 07:15:05;;;;;;;11.20;10.10;;;8.70;97.00;;;;;;5091241;28;20204;-67
2022/04/21 07:17:32;;;;;;;13.70;10.65;;;8.70;96.30;;;;;;5090926;28;20227;-68
2022/04/21 07:19:59;;;;;;;12.32;11.00;;;8.70;96.20;;;;;;5090449;28;20242;-67
2022/04/21 07:22:26;;;;;;;12.25;11.05;;;8.80;96.30;;;;;;5090881;28;20231;-67
2022/04/21 07:24:53;;;;;;;11.02;9.93;;;9.00;97.00;;;;;;5090829;28;20207;-67
2022/04/21 07:27:20;;;;;;;11.98;10.82;;;9.10;96.00;;;;;;5090973;28;20219;-67
2022/04/21 07:29:49;;;;;;;11.57;10.38;;;9.20;95.90;;;;;;5090349;28;20667;-68
2022/04/21 07:32:16;;;;;;;11.13;10.02;;;9.30;96.00;;;;;;5091199;28;20202;-67
2022/04/21 07:34:43;;;;;;;11.80;10.70;;;9.50;95.80;;;;;;5090807;28;20196;-67
2022/04/21 07:37:10;;;;;;;12.02;10.80;;;9.70;96.00;;;;;;5090447;28;20220;-67
2022/04/21 07:39:37;;;;;;;11.55;10.45;;;9.90;95.80;;;;;;5090240;28;20689;-67
2022/04/21 07:42:05;;;;;;;11.70;10.15;;;10.10;95.10;;;;;;5090706;28;20200;-68
2022/04/21 07:44:34;;;;;;;12.98;10.65;;;10.20;95.10;;;;;;5090785;28;20200;-67
2022/04/21 07:47:04;;;;;;;10.90;9.63;;;10.30;95.00;;;;;;5090471;28;20301;-68
2022/04/21 07:49:45;;;;;;;11.27;10.23;;;10.40;94.90;;;;;;5089992;28;20549;-68
2022/04/21 07:55:07;;;;;;;11.23;10.13;;;10.60;93.20;;;;;;5081714;28;20565;-69
2022/04/21 07:57:33;;;;;;;11.52;10.38;;;10.60;94.30;;;;;;5070103;28;20232;-69
2022/04/21 08:00:00;;;;;;;10.93;9.65;;;10.60;93.70;;;;;;5070975;28;20272;-68
2022/04/21 08:02:28;;;;;;;10.88;9.77;;;10.80;95.00;;;;;;5088480;28;20192;-69
2022/04/21 08:04:55;;;;;;;10.50;9.60;;;11.10;94.10;;;;;;5089425;28;20218;-69
2022/04/21 08:07:23;;;;;;;10.70;9.73;;;11.30;93.80;;;;;;5089203;28;20590;-68
2022/04/21 08:09:50;;;;;;;10.60;9.70;;;11.60;93.80;;;;;;5090604;28;20462;-69
2022/04/21 08:12:17;;;;;;;11.05;9.95;;;11.90;92.60;;;;;;5093663;28;20465;-69
2022/04/21 08:14:44;;;;;;;10.30;9.37;;;12.10;92.40;;;;;;5093287;28;20226;-68
2022/04/21 08:17:11;;;;;;;10.13;9.13;;;12.30;92.30;;;;;;5093149;28;20542;-68
2022/04/21 08:19:39;;;;;;;11.27;10.07;;;12.70;92.80;;;;;;5092800;28;20548;-68
2022/04/21 08:22:06;;;;;;;12.10;10.00;;;13.10;92.00;;;;;;5092914;28;20464;-69
2022/04/21 08:32:46;;;;;;;9.30;8.10;;;15.50;87.10;;;;;;5091083;28;20429;-69
2022/04/21 08:35:14;;;;;;;8.40;7.57;;;15.80;84.80;;;;;;5091767;28;20667;-70
2022/04/21 08:37:42;;;;;;;9.20;8.30;;;16.10;84.10;;;;;;5090982;28;20830;-70
2022/04/21 08:40:10;;;;;;;8.83;8.03;;;16.30;83.70;;;;;;5086120;28;20460;-70
2022/04/21 08:42:39;;;;;;;9.27;7.20;;;16.50;83.80;;;;;;5082307;28;20465;-69
2022/04/21 08:45:07;;;;;;;8.70;7.87;;;17.20;83.50;;;;;;5081881;28;20458;-69
2022/04/21 08:47:39;;;;;;;15.70;8.10;;;17.70;80.10;;;;;;5088749;28;20476;-69
2022/04/21 08:50:09;;;;;;;9.03;8.13;;;18.00;79.40;;;;;;5086469;28;20489;-69
2022/04/21 08:52:38;;;;;;;7.63;6.97;;;18.20;79.00;;;;;;5089144;28;20548;-70
2022/04/21 08:55:06;;;;;;;9.20;8.30;;;18.40;78.60;;;;;;5091799;28;20877;-70
2022/04/21 08:57:35;;;;;;;8.83;7.97;;;18.40;76.70;;;;;;5079724;28;20478;-70
2022/04/21 09:00:04;;;;;;;8.83;8.07;;;18.70;78.00;;;;;;5090660;28;20460;-69
2022/04/21 09:02:35;;;;;;;9.13;8.23;;;19.20;77.10;;;;;;5090708;28;20456;-70
2022/04/21 09:05:03;;;;;;;9.30;8.40;;;19.70;74.60;;;;;;5090912;28;20465;-70
2022/04/21 09:07:30;;;;;;;8.93;8.03;;;19.80;72.10;;;;;;5090760;28;20469;-70
2022/04/21 09:10:06;;;;;;;8.87;8.07;;;19.60;72.50;;;;;;5090871;28;20460;-70
2022/04/21 09:12:34;;;;;;;8.63;7.10;;;19.70;74.50;;;;;;5088921;28;21003;-70
2022/04/21 09:15:12;;;;;;;7.60;7.00;;;20.00;73.00;;;;;;5091059;28;20465;-71
2022/04/21 09:17:44;;;;;;;8.10;6.40;;;20.70;72.30;;;;;;5082268;28;20974;-71
2022/04/21 09:20:11;;;;;;;7.63;6.60;;;20.70;69.10;;;;;;5089314;28;20562;-70
2022/04/21 09:22:42;;;;;;;6.90;6.30;;;20.70;71.80;;;;;;5082681;28;20462;-71
2022/04/21 09:25:11;;;;;;;7.23;6.13;;;20.60;70.50;;;;;;5088077;28;20450;-71
2022/04/21 09:27:42;;;;;;;6.93;6.23;;;20.80;68.60;;;;;;5089946;28;20482;-70
2022/04/21 09:30:12;;;;;;;8.20;6.13;;;21.00;67.80;;;;;;5077662;28;20462;-70
2022/04/21 09:32:41;;;;;;;7.60;6.80;;;21.20;69.10;;;;;;5089462;28;20494;-71
2022/04/21 09:35:09;;;;;;;6.70;6.10;;;21.50;67.00;;;;;;5089761;28;20953;-70
2022/04/21 09:37:50;;;;;;;7.57;6.97;;;21.70;67.80;;;;;;5089009;28;20483;-70
2022/04/21 09:40:20;;;;;;;7.40;6.70;;;21.90;66.00;;;;;;5088693;28;20510;-70
2022/04/21 09:42:55;;;;;;;7.83;6.47;;;22.50;66.20;;;;;;5089191;28;20461;-70
2022/04/21 09:48:17;;;;;;;6.80;6.20;;;22.70;64.90;;;;;;5089001;28;20461;-70
2022/04/21 09:50:49;;;;;;;6.90;6.30;;;23.00;65.30;;;;;;5088418;28;20465;-70
2022/04/21 09:53:17;;;;;;;11.83;6.27;;;23.30;67.20;;;;;;5089621;28;20486;-70
2022/04/21 09:55:45;;;;;;;7.60;6.80;;;23.20;66.50;;;;;;5088534;28;20464;-70
2022/04/21 09:58:13;;;;;;;7.03;6.43;;;23.10;66.20;;;;;;5086901;28;20482;-70
2022/04/21 10:00:41;;;;;;;7.60;6.37;;;23.20;66.30;;;;;;5088933;28;20458;-70
2022/04/21 10:03:08;;;;;;;8.83;7.07;;;23.30;64.80;;;;;;5085293;28;21053;-70
2022/04/21 10:05:37;;;;;;;5.80;5.40;;;22.90;66.90;;;;;;5089279;28;20489;-70
2022/04/21 10:08:05;;;;;;;6.00;5.50;;;23.30;65.50;;;;;;5090865;28;20869;-69
2022/04/21 10:10:34;;;;;;;6.83;5.77;;;23.70;64.30;;;;;;5091114;28;20833;-70
2022/04/21 10:13:03;;;;;;;6.20;5.67;;;24.10;63.60;;;;;;5091214;28;20461;-69
2022/04/21 10:15:31;;;;;;;6.20;5.70;;;24.10;63.40;;;;;;5090673;28;20454;-72
2022/04/21 10:17:58;;;;;;;6.00;5.40;;;24.60;65.60;;;;;;5090270;28;20497;-70
2022/04/21 10:20:26;;;;;;;6.93;6.43;;;25.00;62.60;;;;;;5090953;28;20465;-70
2022/04/21 10:22:55;;;;;;;7.97;6.00;;;24.70;62.30;;;;;;5090898;28;20462;-69
2022/04/21 10:25:34;;;;;;;7.10;6.47;;;24.60;64.20;;;;;;5090378;28;20484;-70
2022/04/21 10:28:36;;;;;;;6.80;6.30;;;25.00;63.50;;;;;;5085984;28;20951;-70
2022/04/21 10:31:31;;;;;;;6.97;6.20;;;24.60;59.30;;;;;;5088508;28;20456;-70
2022/04/21 10:34:03;;;;;;;6.07;5.57;;;23.70;63.30;;;;;;5088777;28;20453;-70
2022/04/21 10:36:41;;;;;;;5.50;5.10;;;24.00;64.10;;;;;;5088243;28;20470;-70
2022/04/21 10:39:13;;;;;;;6.00;5.40;;;24.30;63.80;;;;;;5087628;28;20484;-70
2022/04/21 10:41:39;;;;;;;6.27;5.77;;;23.70;63.70;;;;;;5088123;28;20461;-70
2022/04/21 10:44:15;;;;;;;5.10;4.70;;;23.40;65.80;;;;;;5088204;28;20957;-70
2022/04/21 10:46:42;;;;;;;5.50;5.10;;;23.80;65.60;;;;;;5086494;28;20945;-70
2022/04/21 10:49:10;;;;;;;5.53;5.03;;;24.20;62.90;;;;;;5088076;28;20454;-70
2022/04/21 10:58:52;;;;;;;5.10;4.70;;;24.40;61.60;;;;;;4952409;28;20573;-70
2022/04/21 11:01:34;;;;;;;6.03;4.43;;;25.10;62.30;;;;;;4985097;28;20458;-71
2022/04/21 11:04:12;;;;;;;4.37;4.07;;;25.40;62.00;;;;;;5084766;28;20576;-70
2022/04/21 11:06:43;;;;;;;5.33;4.90;;;25.90;61.30;;;;;;5088873;28;20841;-70
2022/04/21 11:09:41;;;;;;;5.30;4.80;;;26.10;61.90;;;;;;5088765;28;20451;-71
2022/04/21 11:12:09;;;;;;;4.97;4.57;;;26.80;63.00;;;;;;5088958;28;20697;-71
2022/04/21 11:14:37;;;;;;;6.00;5.50;;;26.50;60.50;;;;;;5087802;28;20825;-71
2022/04/21 11:17:06;;;;;;;5.57;5.17;;;26.10;62.30;;;;;;5089620;28;20473;-68
2022/04/21 11:19:35;;;;;;;5.70;5.00;;;26.10;63.60;;;;;;5088306;28;20485;-69
2022/04/21 11:22:04;;;;;;;4.40;4.10;;;26.30;62.10;;;;;;5089795;28;20457;-69
2022/04/21 11:25:02;;;;;;;5.17;4.77;;;25.70;62.90;;;;;;5090699;28;20467;-70
2022/04/21 11:27:29;;;;;;;4.30;3.90;;;25.80;62.60;;;;;;5091164;28;20844;-70
2022/04/21 11:30:00;;;;;;;5.37;4.87;;;26.30;62.10;;;;;;5089799;28;20446;-70
2022/04/21 11:32:29;;;;;;;6.30;5.80;;;26.50;59.30;;;;;;5090361;28;20605;-70
2022/04/21 11:35:01;;;;;;;5.53;5.13;;;25.20;61.80;;;;;;5090743;28;20975;-70
2022/04/21 11:37:51;;;;;;;5.67;5.17;;;24.20;63.90;;;;;;5088550;28;20589;-70
2022/04/21 11:40:23;;;;;;;4.60;4.30;;;23.10;67.10;;;;;;5090364;28;20514;-69
2022/04/21 11:42:51;;;;;;;5.57;5.07;;;23.40;67.20;;;;;;5091139;28;20464;-69
2022/04/21 11:45:22;;;;;;;7.30;5.30;;;23.60;64.20;;;;;;5090461;28;20460;-70
2022/04/21 11:47:51;;;;;;;5.90;5.40;;;22.70;66.40;;;;;;5090653;28;20481;-69
2022/04/21 11:50:26;;;;;;;5.10;4.70;;;22.20;67.70;;;;;;5090419;28;20462;-69
2022/04/21 11:52:54;;;;;;;5.23;4.73;;;21.80;68.70;;;;;;5090591;28;20799;-69
2022/04/21 11:55:23;;;;;;;5.07;4.67;;;21.60;68.90;;;;;;5090728;28;20844;-69
2022/04/21 11:57:50;;;;;;;5.87;5.37;;;21.10;68.80;;;;;;5090330;28;20488;-69
2022/04/21 12:06:27;;;;;;;6.20;4.47;;;20.60;69.30;;;;;;5090110;28;20968;-69
2022/04/21 12:08:39;;;;;;;4.20;3.90;;;18.90;70.50;;;;;;5089839;28;20559;-69
2022/04/21 12:11:10;;;;;;;5.57;5.03;;;19.10;73.20;;;;;;5090414;28;20458;-69
2022/04/21 12:13:37;;;;;;;3.60;3.10;;;19.20;70.40;;;;;;5090320;28;20840;-69
2022/04/21 12:16:04;;;;;;;4.70;3.40;;;19.60;72.50;;;;;;5090882;28;20468;-70
2022/04/21 12:18:48;;;;;;;4.40;4.00;;;20.00;72.20;;;;;;5089859;28;20572;-70
2022/04/21 12:21:18;;;;;;;4.00;3.17;;;20.20;71.20;;;;;;5090709;28;20453;-70
2022/04/21 12:23:46;;;;;;;3.40;3.10;;;21.10;72.40;;;;;;5090365;28;20967;-70
2022/04/21 12:26:12;;;;;;;3.47;3.23;;;22.20;70.50;;;;;;5090693;28;20457;-70
2022/04/21 12:28:49;;;;;;;2.90;2.70;;;23.00;69.40;;;;;;5089544;28;20457;-70
2022/04/21 12:31:19;;;;;;;2.77;2.57;;;23.00;67.30;;;;;;5090466;28;20459;-70
2022/04/21 12:33:50;;;;;;;3.00;2.80;;;22.50;68.00;;;;;;5090300;28;20468;-70
2022/04/21 12:36:26;;;;;;;2.80;2.60;;;22.00;68.80;;;;;;5090160;28;20457;-70
2022/04/21 12:38:56;;;;;;;2.60;2.20;;;21.30;69.20;;;;;;5089824;28;20541;-70
2022/04/21 12:41:23;;;;;;;3.00;2.27;;;20.60;69.80;;;;;;5090531;28;20464;-70
2022/04/21 12:43:51;;;;;;;4.60;2.30;;;19.90;70.10;;;;;;5091025;28;20504;-70
2022/04/21 12:46:18;;;;;;;3.00;2.40;;;19.60;69.80;;;;;;5090326;28;20951;-70
2022/04/21 12:48:49;;;;;;;2.70;2.50;;;19.60;71.30;;;;;;5090108;28;20454;-70
2022/04/21 12:51:20;;;;;;;2.53;2.33;;;19.70;70.80;;;;;;5090403;28;20457;-70
2022/04/21 12:53:56;;;;;;;2.13;1.93;;;19.80;70.90;;;;;;5090632;28;20457;-70
2022/04/21 12:56:34;;;;;;;4.03;1.97;;;19.80;70.00;;;;;;5091094;28;20480;-70
2022/04/21 12:59:00;;;;;;;2.93;1.70;;;19.70;70.60;;;;;;5093241;28;20481;-70
2022/04/21 13:01:28;;;;;;;2.37;2.00;;;19.90;69.10;;;;;;5093515;28;20469;-71
2022/04/21 13:04:14;;;;;;;2.40;1.83;;;20.30;69.20;;;;;;5153850;22;20489;-92
2022/04/21 13:06:43;;;;;;;2.20;2.00;;;20.60;68.20;;;;;;5111571;22;20505;-71
2022/04/21 13:09:10;;;;;;;2.10;2.00;;;20.50;67.60;;;;;;5093874;28;20532;-71
2022/04/21 13:11:37;;;;;;;3.10;1.93;;;20.20;67.70;;;;;;5093853;28;20457;-71
2022/04/21 13:14:03;;;;;;;2.00;1.80;;;20.20;70.10;;;;;;5093868;28;20457;-71
2022/04/21 13:16:30;;;;;;;2.93;2.10;;;20.20;69.00;;;;;;5108490;28;20472;-71
2022/04/21 13:18:59;;;;;;;2.17;2.00;;;20.50;69.40;;;;;;5112489;28;20903;-71
2022/04/21 13:24:10;;;;;;;4.30;2.43;;;20.50;68.00;;;;;;5113223;28;20440;-71
2022/04/21 13:26:36;;;;;;;4.37;2.40;;;20.10;68.50;;;;;;5113497;28;20488;-71
2022/04/21 13:29:06;;;;;;;2.63;2.43;;;19.70;69.90;;;;;;5112515;28;20457;-71
2022/04/21 13:34:18;;;;;;;2.60;2.40;;;19.30;69.70;;;;;;5113102;28;20439;-71
2022/04/21 13:36:45;;;;;;;1.93;1.73;;;19.70;70.50;;;;;;5113130;28;20482;-71
2022/04/21 13:39:12;;;;;;;4.40;2.70;;;20.70;68.70;;;;;;5112257;28;20480;-71
2022/04/21 13:41:39;;;;;;;2.50;2.30;;;21.40;65.40;;;;;;5113188;28;20463;-71
2022/04/21 13:44:06;;;;;;;2.10;1.90;;;21.80;66.30;;;;;;5112908;28;20534;-71
2022/04/21 13:46:35;;;;;;;3.30;2.30;;;21.90;68.50;;;;;;5112879;28;20469;-71
2022/04/21 13:49:02;;;;;;;3.23;2.30;;;22.40;65.50;;;;;;5112541;28;20452;-71
2022/04/21 13:51:31;;;;;;;2.60;2.40;;;22.50;65.70;;;;;;5112624;28;20467;-71
2022/04/21 13:53:57;;;;;;;2.53;2.33;;;22.70;67.00;;;;;;5112912;28;20464;-71